Time;durP1;ratioP1;P1;durP2;ratioP2;P2;SDS_P1;SDS_P2;PMS_P1;PMS_P2;Temp;Humidity;BMP_temperature;BMP_pressure;BME280_temperature;BME280_humidity;BME280_pressure;Samples;Min_cycle;Max_cycle;Signal;HPM_P1;HPM_P2
2024/01/22 00:00:58;;;;;;;0.00;0.00;;;1.60;99.90;;;;;;5090918;28;20199;-62
2024/01/22 00:03:24;;;;;;;0.30;0.30;;;1.60;99.90;;;;;;5091031;28;20570;-63
2024/01/22 00:05:49;;;;;;;0.00;0.00;;;1.50;99.90;;;;;;5089801;28;20212;-63
2024/01/22 00:08:15;;;;;;;0.10;0.10;;;1.40;99.90;;;;;;5090820;28;20181;-63
2024/01/22 00:10:40;;;;;;;0.05;0.05;;;1.30;99.90;;;;;;5089307;28;20191;-63
2024/01/22 00:13:06;;;;;;;0.00;0.00;;;1.20;99.90;;;;;;5074165;28;20180;-63
2024/01/22 00:15:32;;;;;;;0.00;0.00;;;1.20;99.90;;;;;;5090544;28;20198;-63
2024/01/22 00:17:58;;;;;;;0.00;0.00;;;1.10;99.90;;;;;;5090495;28;20856;-63
2024/01/22 00:20:23;;;;;;;0.00;0.00;;;1.10;99.90;;;;;;5090499;28;20186;-64
2024/01/22 00:22:49;;;;;;;0.10;0.10;;;1.10;99.90;;;;;;5090766;28;20176;-64
2024/01/22 00:25:14;;;;;;;0.20;0.20;;;1.00;99.90;;;;;;5090992;28;20284;-64
2024/01/22 00:27:40;;;;;;;0.00;0.00;;;0.90;99.90;;;;;;5090723;28;20187;-64
2024/01/22 00:30:06;;;;;;;0.00;0.00;;;0.90;99.90;;;;;;5090860;28;20184;-64
2024/01/22 00:32:32;;;;;;;1.13;1.10;;;0.90;99.90;;;;;;5090737;28;20678;-64
2024/01/22 00:34:57;;;;;;;0.22;0.22;;;0.80;99.90;;;;;;5090601;28;20203;-64
2024/01/22 00:37:23;;;;;;;0.03;0.03;;;0.80;99.90;;;;;;5090418;28;20213;-64
2024/01/22 00:39:48;;;;;;;0.15;0.15;;;0.80;99.90;;;;;;5090584;28;20638;-64
2024/01/22 00:42:14;;;;;;;0.10;0.10;;;0.80;99.90;;;;;;5090386;28;20180;-62
2024/01/22 00:44:40;;;;;;;0.00;0.00;;;0.80;99.90;;;;;;5089256;28;20205;-64
2024/01/22 00:47:05;;;;;;;0.00;0.00;;;0.70;99.90;;;;;;5090198;28;20188;-63
2024/01/22 00:49:31;;;;;;;0.77;0.77;;;0.60;99.90;;;;;;5090375;28;20513;-63
2024/01/22 00:51:57;;;;;;;0.00;0.00;;;0.60;99.90;;;;;;5089411;28;20191;-63
2024/01/22 00:54:22;;;;;;;0.00;0.00;;;0.60;99.90;;;;;;5089608;28;20180;-63
2024/01/22 00:56:48;;;;;;;0.00;0.00;;;0.60;99.90;;;;;;5090664;28;20679;-63
2024/01/22 00:59:13;;;;;;;0.10;0.05;;;0.60;99.90;;;;;;5088717;28;20173;-63
2024/01/22 01:01:39;;;;;;;0.00;0.00;;;0.50;99.90;;;;;;5089841;28;20180;-63
2024/01/22 01:04:05;;;;;;;0.00;0.00;;;0.50;99.90;;;;;;5089558;28;20203;-63
2024/01/22 01:06:31;;;;;;;0.70;0.38;;;0.40;99.90;;;;;;5090133;28;20244;-63
2024/01/22 01:08:56;;;;;;;0.00;0.00;;;0.40;99.90;;;;;;5089947;28;20184;-63
2024/01/22 01:11:22;;;;;;;0.43;0.43;;;0.40;99.90;;;;;;5089680;28;20183;-63
2024/01/22 01:13:47;;;;;;;0.00;0.00;;;0.30;99.90;;;;;;5090042;28;20191;-63
2024/01/22 01:16:13;;;;;;;0.00;0.00;;;0.20;99.90;;;;;;5090088;28;20286;-63
2024/01/22 01:18:38;;;;;;;0.00;0.00;;;0.20;99.90;;;;;;5090114;28;20183;-63
2024/01/22 01:21:04;;;;;;;0.00;0.00;;;0.20;99.90;;;;;;5089426;28;20180;-63
2024/01/22 01:23:30;;;;;;;0.00;0.00;;;0.10;99.90;;;;;;5090113;28;20161;-63
2024/01/22 01:25:55;;;;;;;0.00;0.00;;;0.10;99.90;;;;;;5090277;28;20318;-63
2024/01/22 01:28:21;;;;;;;0.00;0.00;;;0.10;99.90;;;;;;5090015;28;20687;-63
2024/01/22 01:30:46;;;;;;;0.00;0.00;;;0.10;99.90;;;;;;5090138;28;20689;-63
2024/01/22 01:33:12;;;;;;;0.00;0.00;;;0.00;99.90;;;;;;5090107;28;20271;-64
2024/01/22 01:35:37;;;;;;;0.00;0.00;;;0.00;99.90;;;;;;5089984;28;20176;-63
2024/01/22 01:38:03;;;;;;;0.00;0.00;;;0.00;99.90;;;;;;5090257;28;20203;-63
2024/01/22 01:40:28;;;;;;;0.00;0.00;;;0.00;99.90;;;;;;5090164;28;20594;-63
2024/01/22 01:42:55;;;;;;;0.00;0.00;;;-0.10;99.90;;;;;;5090497;28;20276;-63
2024/01/22 01:45:20;;;;;;;0.10;0.10;;;-0.20;99.90;;;;;;5090111;28;20313;-63
2024/01/22 01:47:47;;;;;;;0.00;0.00;;;-0.20;99.90;;;;;;5089803;28;20188;-62
2024/01/22 01:50:17;;;;;;;0.00;0.00;;;-0.20;99.90;;;;;;5089643;28;20275;-63
2024/01/22 01:52:43;;;;;;;0.03;0.03;;;-0.20;99.90;;;;;;5089680;28;20184;-63
2024/01/22 01:55:10;;;;;;;0.00;0.00;;;-0.20;99.90;;;;;;5091276;28;20180;-63
2024/01/22 01:57:37;;;;;;;0.10;0.10;;;-0.20;99.90;;;;;;5092886;28;20271;-63
2024/01/22 02:00:05;;;;;;;0.00;0.00;;;-0.20;99.90;;;;;;5093264;28;20219;-63
2024/01/22 02:02:31;;;;;;;0.00;0.00;;;-0.20;99.90;;;;;;5092849;28;20530;-63
2024/01/22 02:04:56;;;;;;;0.00;0.00;;;-0.20;99.90;;;;;;5093133;28;20267;-63
2024/01/22 02:07:22;;;;;;;0.00;0.00;;;-0.20;99.90;;;;;;5083236;28;20879;-63
2024/01/22 02:09:50;;;;;;;0.00;0.00;;;-0.20;99.90;;;;;;5092926;28;20191;-63
2024/01/22 02:12:17;;;;;;;0.00;0.00;;;-0.20;99.90;;;;;;5081420;28;20176;-62
2024/01/22 02:14:43;;;;;;;0.00;0.00;;;-0.30;99.90;;;;;;5092672;28;20196;-63
2024/01/22 02:17:08;;;;;;;0.00;0.00;;;-0.30;99.90;;;;;;5093067;28;20188;-63
2024/01/22 02:19:34;;;;;;;0.00;0.00;;;-0.30;99.90;;;;;;5092485;28;20188;-63
2024/01/22 02:21:59;;;;;;;0.00;0.00;;;-0.30;99.90;;;;;;5092585;28;20266;-63
2024/01/22 02:24:25;;;;;;;0.00;0.00;;;-0.30;99.90;;;;;;5092388;28;20172;-63
2024/01/22 02:26:51;;;;;;;0.00;0.00;;;-0.30;99.90;;;;;;5092605;28;20258;-63
2024/01/22 02:29:16;;;;;;;0.00;0.00;;;-0.40;99.90;;;;;;5092968;28;20211;-63
2024/01/22 02:31:42;;;;;;;0.00;0.00;;;-0.40;99.90;;;;;;5092744;28;20267;-63
2024/01/22 02:34:08;;;;;;;0.00;0.00;;;-0.40;99.90;;;;;;5092579;28;20175;-63
2024/01/22 02:36:33;;;;;;;0.00;0.00;;;-0.50;99.90;;;;;;5092176;28;20255;-63
2024/01/22 02:38:59;;;;;;;0.00;0.00;;;-0.50;99.90;;;;;;5092036;28;20216;-63
2024/01/22 02:41:24;;;;;;;0.00;0.00;;;-0.50;99.90;;;;;;5092380;28;20187;-64
2024/01/22 02:43:50;;;;;;;0.57;0.57;;;-0.50;99.90;;;;;;5092301;28;20188;-63
2024/01/22 02:46:16;;;;;;;0.00;0.00;;;-0.50;99.90;;;;;;5090961;28;20221;-63
2024/01/22 02:48:42;;;;;;;0.00;0.00;;;-0.50;99.90;;;;;;5091120;28;20188;-63
2024/01/22 02:51:08;;;;;;;0.00;0.00;;;-0.50;99.90;;;;;;5092021;28;20176;-63
2024/01/22 02:53:34;;;;;;;0.00;0.00;;;-0.50;99.90;;;;;;5091974;28;20180;-63
2024/01/22 02:55:59;;;;;;;0.00;0.00;;;-0.40;99.90;;;;;;5092141;28;20238;-63
2024/01/22 02:58:25;;;;;;;0.00;0.00;;;-0.40;99.90;;;;;;5092019;28;20183;-63
2024/01/22 03:00:50;;;;;;;0.00;0.00;;;-0.40;99.90;;;;;;5092139;28;20188;-63
2024/01/22 03:03:16;;;;;;;0.00;0.00;;;-0.40;99.90;;;;;;5090551;28;20590;-63
2024/01/22 03:05:41;;;;;;;0.00;0.00;;;-0.40;99.90;;;;;;5091634;28;20211;-63
2024/01/22 03:08:07;;;;;;;0.00;0.00;;;-0.40;99.90;;;;;;5092219;28;20180;-63
2024/01/22 03:10:33;;;;;;;0.00;0.00;;;-0.40;99.90;;;;;;5091833;28;20230;-63
2024/01/22 03:12:58;;;;;;;0.00;0.00;;;-0.40;99.90;;;;;;5091808;28;20179;-63
2024/01/22 03:15:24;;;;;;;0.00;0.00;;;-0.40;99.90;;;;;;5091761;28;20180;-63
2024/01/22 03:17:49;;;;;;;0.00;0.00;;;-0.40;99.90;;;;;;5091303;28;20168;-63
2024/01/22 03:20:15;;;;;;;0.00;0.00;;;-0.40;99.90;;;;;;5090136;28;20957;-63
2024/01/22 03:22:40;;;;;;;0.00;0.00;;;-0.30;99.90;;;;;;5091808;28;20184;-63
2024/01/22 03:25:06;;;;;;;0.00;0.00;;;-0.30;99.90;;;;;;5091608;28;20203;-63
2024/01/22 03:27:32;;;;;;;0.00;0.00;;;-0.20;99.90;;;;;;5091547;28;20176;-63
2024/01/22 03:29:57;;;;;;;0.00;0.00;;;-0.20;99.90;;;;;;5091774;28;20176;-63
2024/01/22 03:32:23;;;;;;;0.00;0.00;;;-0.20;99.90;;;;;;5091938;28;20286;-63
2024/01/22 03:34:48;;;;;;;0.00;0.00;;;-0.20;99.90;;;;;;5090596;28;20245;-63
2024/01/22 03:37:14;;;;;;;0.00;0.00;;;-0.10;99.90;;;;;;5091777;28;20233;-63
2024/01/22 03:39:39;;;;;;;0.00;0.00;;;-0.10;99.90;;;;;;5091190;28;20227;-63
2024/01/22 03:42:08;;;;;;;0.00;0.00;;;0.00;99.90;;;;;;5091724;28;20182;-63
2024/01/22 03:44:33;;;;;;;0.00;0.00;;;0.10;99.90;;;;;;5091525;28;20204;-63
2024/01/22 03:46:59;;;;;;;0.00;0.00;;;0.10;99.90;;;;;;5091324;28;20247;-63
2024/01/22 03:49:24;;;;;;;0.00;0.00;;;0.30;99.90;;;;;;5091518;28;20654;-63
2024/01/22 03:51:50;;;;;;;0.00;0.00;;;0.40;99.90;;;;;;5091343;28;20275;-62
2024/01/22 03:54:15;;;;;;;0.00;0.00;;;0.60;99.90;;;;;;5092241;28;20259;-63
2024/01/22 03:56:41;;;;;;;0.00;0.00;;;0.70;99.90;;;;;;5091416;28;20178;-63
2024/01/22 03:59:06;;;;;;;0.00;0.00;;;0.80;99.90;;;;;;5091803;28;20176;-63
2024/01/22 04:01:32;;;;;;;0.00;0.00;;;0.90;99.90;;;;;;5087504;28;20176;-64
2024/01/22 04:03:58;;;;;;;0.00;0.00;;;1.00;99.90;;;;;;5091183;28;20233;-64
2024/01/22 04:06:23;;;;;;;0.00;0.00;;;1.00;99.90;;;;;;5091205;28;20212;-63
2024/01/22 04:08:49;;;;;;;0.00;0.00;;;1.00;99.90;;;;;;5081046;28;20176;-63
2024/01/22 04:11:14;;;;;;;0.00;0.00;;;1.10;99.90;;;;;;5090700;28;20200;-64
2024/01/22 04:13:40;;;;;;;0.00;0.00;;;1.20;99.90;;;;;;5089508;28;20271;-63
2024/01/22 04:16:06;;;;;;;0.00;0.00;;;1.30;99.90;;;;;;5091174;28;20169;-63
2024/01/22 04:18:31;;;;;;;0.00;0.00;;;1.40;99.90;;;;;;5089952;28;20195;-67
2024/01/22 04:20:57;;;;;;;0.00;0.00;;;1.50;99.90;;;;;;5090642;28;20188;-67
2024/01/22 04:23:22;;;;;;;0.00;0.00;;;1.60;99.90;;;;;;5090762;28;20168;-66
2024/01/22 04:25:48;;;;;;;0.00;0.00;;;1.60;99.90;;;;;;5090330;28;20214;-66
2024/01/22 04:28:14;;;;;;;0.00;0.00;;;1.70;99.90;;;;;;5090342;28;20179;-65
2024/01/22 04:30:40;;;;;;;0.00;0.00;;;1.70;99.90;;;;;;5088802;28;20187;-66
2024/01/22 04:33:06;;;;;;;0.00;0.00;;;1.70;99.90;;;;;;5088706;28;20192;-65
2024/01/22 04:35:31;;;;;;;0.00;0.00;;;1.70;99.90;;;;;;5091059;28;20168;-64
2024/01/22 04:37:57;;;;;;;0.00;0.00;;;1.80;99.90;;;;;;5090795;28;20263;-63
2024/01/22 04:40:22;;;;;;;0.00;0.00;;;1.80;99.90;;;;;;5090489;28;20216;-65
2024/01/22 04:42:48;;;;;;;0.00;0.00;;;1.80;99.90;;;;;;5091019;28;20191;-65
2024/01/22 04:45:13;;;;;;;0.00;0.00;;;1.80;99.90;;;;;;5090023;28;20207;-65
2024/01/22 04:47:39;;;;;;;0.00;0.00;;;1.80;99.90;;;;;;5091076;28;20623;-62
2024/01/22 04:50:05;;;;;;;0.00;0.00;;;1.90;99.90;;;;;;5089497;28;20195;-64
2024/01/22 04:52:31;;;;;;;0.00;0.00;;;1.90;99.90;;;;;;5089552;28;20176;-67
2024/01/22 04:54:56;;;;;;;0.00;0.00;;;1.90;99.90;;;;;;5090965;28;20555;-64
2024/01/22 04:57:22;;;;;;;0.00;0.00;;;1.90;99.90;;;;;;5091138;28;20522;-65
2024/01/22 04:59:47;;;;;;;0.00;0.00;;;1.80;99.90;;;;;;5090793;28;20206;-61
2024/01/22 05:02:13;;;;;;;0.00;0.00;;;1.80;99.90;;;;;;5090570;28;20172;-65
2024/01/22 05:04:38;;;;;;;0.00;0.00;;;1.80;99.90;;;;;;5089806;28;20215;-63
2024/01/22 05:07:04;;;;;;;0.00;0.00;;;1.80;99.90;;;;;;5090751;28;20215;-65
2024/01/22 05:09:29;;;;;;;0.00;0.00;;;1.70;99.90;;;;;;5091013;28;20305;-64
2024/01/22 05:11:55;;;;;;;0.00;0.00;;;1.70;99.90;;;;;;5090663;28;20266;-65
2024/01/22 05:14:20;;;;;;;0.00;0.00;;;1.60;99.90;;;;;;5079495;28;20176;-65
2024/01/22 05:16:46;;;;;;;0.00;0.00;;;1.70;99.90;;;;;;5090478;28;20278;-65
2024/01/22 05:19:11;;;;;;;0.00;0.00;;;1.70;99.90;;;;;;5091010;28;20180;-66
2024/01/22 05:21:37;;;;;;;0.08;0.08;;;1.60;99.90;;;;;;5090788;28;20297;-66
2024/01/22 05:24:03;;;;;;;0.00;0.00;;;1.70;99.90;;;;;;5091005;28;20176;-66
2024/01/22 05:26:28;;;;;;;0.00;0.00;;;1.60;99.90;;;;;;5090792;28;20800;-66
2024/01/22 05:28:54;;;;;;;0.00;0.00;;;1.70;99.90;;;;;;5090866;28;20184;-66
2024/01/22 05:31:19;;;;;;;0.00;0.00;;;1.50;99.90;;;;;;5094280;28;20168;-66
2024/01/22 05:33:45;;;;;;;0.00;0.00;;;1.70;99.90;;;;;;5094905;28;20176;-66
2024/01/22 05:36:10;;;;;;;0.05;0.05;;;1.70;99.90;;;;;;5094647;28;20262;-64
2024/01/22 05:38:41;;;;;;;0.10;0.10;;;1.70;99.90;;;;;;5093027;28;20200;-65
2024/01/22 05:41:06;;;;;;;0.00;0.00;;;1.80;99.90;;;;;;5093359;28;20180;-65
2024/01/22 05:43:32;;;;;;;0.20;0.20;;;1.80;99.90;;;;;;5094549;28;20172;-65
2024/01/22 05:45:57;;;;;;;0.00;0.00;;;1.90;99.90;;;;;;5094189;28;20210;-65
2024/01/22 05:48:23;;;;;;;0.20;0.20;;;2.00;99.90;;;;;;5094397;28;20199;-65
2024/01/22 05:50:49;;;;;;;0.00;0.00;;;2.10;99.90;;;;;;5094259;28;20214;-65
2024/01/22 05:53:15;;;;;;;0.00;0.00;;;2.20;99.90;;;;;;5094333;28;20188;-65
2024/01/22 05:55:41;;;;;;;0.00;0.00;;;2.20;99.90;;;;;;5094163;28;20226;-65
2024/01/22 05:58:06;;;;;;;0.10;0.10;;;2.30;99.90;;;;;;5094206;28;20176;-66
2024/01/22 06:00:32;;;;;;;0.00;0.00;;;2.30;99.90;;;;;;5094040;28;20183;-65
2024/01/22 06:02:58;;;;;;;3.53;0.52;;;2.30;99.90;;;;;;5093943;28;20209;-66
2024/01/22 06:05:24;;;;;;;0.40;0.40;;;2.40;99.90;;;;;;5094007;28;20215;-66
2024/01/22 06:07:49;;;;;;;0.25;0.25;;;2.40;99.90;;;;;;5094080;28;20624;-65
2024/01/22 06:10:15;;;;;;;0.08;0.08;;;2.50;99.90;;;;;;5093859;28;20168;-66
2024/01/22 06:12:41;;;;;;;0.10;0.10;;;2.50;99.90;;;;;;5093953;28;20221;-66
2024/01/22 06:15:07;;;;;;;0.95;0.90;;;2.60;99.90;;;;;;5093988;28;20197;-66
2024/01/22 06:17:33;;;;;;;0.00;0.00;;;2.60;99.90;;;;;;5093704;28;20176;-66
2024/01/22 06:20:00;;;;;;;0.13;0.13;;;2.70;99.90;;;;;;5093719;28;20171;-65
2024/01/22 06:22:26;;;;;;;0.00;0.00;;;2.80;99.90;;;;;;5093832;28;20514;-66
2024/01/22 06:24:52;;;;;;;0.00;0.00;;;2.80;99.90;;;;;;5093595;28;20180;-66
2024/01/22 06:27:17;;;;;;;0.15;0.15;;;2.90;99.90;;;;;;5093697;28;20909;-66
2024/01/22 06:29:43;;;;;;;0.00;0.00;;;3.10;99.90;;;;;;5093626;28;20514;-66
2024/01/22 06:32:08;;;;;;;0.00;0.00;;;3.30;99.90;;;;;;5092373;28;20264;-66
2024/01/22 06:34:35;;;;;;;0.00;0.00;;;3.60;99.90;;;;;;5093260;28;20182;-66
2024/01/22 06:37:01;;;;;;;0.00;0.00;;;3.80;99.90;;;;;;5093497;28;20590;-65
2024/01/22 06:39:26;;;;;;;0.00;0.00;;;4.00;99.90;;;;;;5093228;28;20314;-66
2024/01/22 06:41:52;;;;;;;0.00;0.00;;;4.20;99.90;;;;;;5092984;28;20211;-66
2024/01/22 06:44:17;;;;;;;0.00;0.00;;;4.40;99.90;;;;;;5093446;28;20180;-65
2024/01/22 06:46:43;;;;;;;0.00;0.00;;;4.60;99.90;;;;;;5093195;28;20220;-65
2024/01/22 06:49:08;;;;;;;0.00;0.00;;;4.80;99.90;;;;;;5093318;28;20183;-65
2024/01/22 06:51:34;;;;;;;0.00;0.00;;;5.00;99.90;;;;;;5092069;28;20282;-65
2024/01/22 06:53:59;;;;;;;0.00;0.00;;;5.10;99.90;;;;;;5092062;28;20172;-65
2024/01/22 06:56:25;;;;;;;0.00;0.00;;;5.20;99.90;;;;;;5093340;28;20674;-65
2024/01/22 06:58:51;;;;;;;0.00;0.00;;;5.20;99.90;;;;;;5093118;28;20653;-66
2024/01/22 07:01:16;;;;;;;0.00;0.00;;;5.20;99.90;;;;;;5092915;28;20539;-65
2024/01/22 07:03:41;;;;;;;0.00;0.00;;;5.30;99.90;;;;;;5092921;28;20196;-66
2024/01/22 07:06:07;;;;;;;0.00;0.00;;;5.30;99.90;;;;;;5092959;28;20212;-66
2024/01/22 07:08:33;;;;;;;0.00;0.00;;;5.30;99.90;;;;;;5092814;28;20609;-65
2024/01/22 07:10:58;;;;;;;0.00;0.00;;;5.30;99.90;;;;;;5093017;28;20172;-66
2024/01/22 07:13:24;;;;;;;0.00;0.00;;;5.20;99.90;;;;;;5092759;28;20262;-66
2024/01/22 07:15:49;;;;;;;0.00;0.00;;;5.20;99.90;;;;;;5091387;28;20216;-66
2024/01/22 07:18:15;;;;;;;0.00;0.00;;;5.20;99.90;;;;;;5092652;28;20229;-66
2024/01/22 07:20:40;;;;;;;0.00;0.00;;;5.20;99.90;;;;;;5092922;28;20642;-65
2024/01/22 07:23:06;;;;;;;0.00;0.00;;;5.10;99.90;;;;;;5092750;28;20164;-65
2024/01/22 07:25:36;;;;;;;0.00;0.00;;;5.10;99.90;;;;;;5092380;28;20628;-65
2024/01/22 07:28:02;;;;;;;0.00;0.00;;;5.20;99.90;;;;;;5092720;28;20277;-65
2024/01/22 07:30:28;;;;;;;0.00;0.00;;;5.20;99.90;;;;;;5092683;28;20203;-66
2024/01/22 07:32:54;;;;;;;0.00;0.00;;;5.40;99.90;;;;;;5092503;28;20636;-66
2024/01/22 07:35:19;;;;;;;0.00;0.00;;;5.50;99.90;;;;;;5092474;28;20176;-66
2024/01/22 07:37:45;;;;;;;0.00;0.00;;;5.70;99.90;;;;;;5092329;28;20187;-66
2024/01/22 07:40:11;;;;;;;0.00;0.00;;;5.90;99.90;;;;;;5092145;28;20688;-66
2024/01/22 07:42:37;;;;;;;0.00;0.00;;;5.90;99.90;;;;;;5092214;28;20276;-66
2024/01/22 07:45:05;;;;;;;0.00;0.00;;;6.10;99.90;;;;;;5092331;28;20184;-66
2024/01/22 07:47:35;;;;;;;0.00;0.00;;;6.20;99.90;;;;;;5092145;28;20188;-66
2024/01/22 07:50:05;;;;;;;0.00;0.00;;;6.30;99.90;;;;;;5092232;28;20562;-66
2024/01/22 07:52:34;;;;;;;0.00;0.00;;;6.30;99.90;;;;;;5091149;28;20203;-65
2024/01/22 07:55:03;;;;;;;0.00;0.00;;;6.40;99.90;;;;;;5092087;28;20199;-66
2024/01/22 07:57:29;;;;;;;0.00;0.00;;;6.50;99.90;;;;;;5091952;28;20263;-66
2024/01/22 07:59:55;;;;;;;0.00;0.00;;;6.50;99.90;;;;;;5091658;28;20630;-66
2024/01/22 08:02:20;;;;;;;0.00;0.00;;;6.60;99.90;;;;;;5091854;28;20179;-67
2024/01/22 08:04:46;;;;;;;0.00;0.00;;;6.70;99.90;;;;;;5091628;28;20211;-66
2024/01/22 08:07:12;;;;;;;0.00;0.00;;;6.90;99.90;;;;;;5091700;28;20211;-67
2024/01/22 08:09:38;;;;;;;0.00;0.00;;;7.00;99.90;;;;;;5091635;28;20258;-66
2024/01/22 08:12:03;;;;;;;0.00;0.00;;;7.20;99.90;;;;;;5091729;28;20789;-66
2024/01/22 08:14:33;;;;;;;0.00;0.00;;;7.30;99.90;;;;;;5091605;28;20187;-66
2024/01/22 08:16:59;;;;;;;0.00;0.00;;;7.70;99.90;;;;;;5091566;28;20172;-67
2024/01/22 08:19:26;;;;;;;0.00;0.00;;;8.00;99.90;;;;;;5091585;28;20229;-66
2024/01/22 08:21:52;;;;;;;0.00;0.00;;;8.00;99.90;;;;;;5091554;28;20176;-67
2024/01/22 08:24:18;;;;;;;0.00;0.00;;;8.10;99.90;;;;;;5091365;28;20234;-66
2024/01/22 08:26:43;;;;;;;0.00;0.00;;;8.10;99.90;;;;;;5091225;28;20222;-66
2024/01/22 08:29:09;;;;;;;0.10;0.10;;;8.20;99.90;;;;;;5091362;28;20556;-68
2024/01/22 08:31:34;;;;;;;0.00;0.00;;;8.20;99.90;;;;;;5091105;28;20176;-66
2024/01/22 08:34:00;;;;;;;0.85;0.85;;;8.30;99.90;;;;;;5091264;28;20645;-66
2024/01/22 08:36:26;;;;;;;1.10;1.10;;;8.30;99.90;;;;;;5091130;28;20275;-66
2024/01/22 08:38:51;;;;;;;0.68;0.65;;;8.40;99.90;;;;;;5090997;28;20349;-66
2024/01/22 08:41:17;;;;;;;0.00;0.00;;;8.40;99.90;;;;;;5091175;28;20172;-67
2024/01/22 08:43:42;;;;;;;0.00;0.00;;;8.40;99.90;;;;;;5091110;28;20171;-66
2024/01/22 08:46:08;;;;;;;0.00;0.00;;;8.40;99.90;;;;;;5091116;28;20210;-66
2024/01/22 08:48:33;;;;;;;0.00;0.00;;;8.50;99.90;;;;;;5091007;28;20181;-66
2024/01/22 08:50:59;;;;;;;0.00;0.00;;;8.60;99.90;;;;;;5090947;28;20176;-65
2024/01/22 08:53:25;;;;;;;0.00;0.00;;;8.70;99.90;;;;;;5090969;28;20175;-65
2024/01/22 08:55:51;;;;;;;0.00;0.00;;;8.80;99.90;;;;;;5090898;28;20180;-65
2024/01/22 08:58:16;;;;;;;0.00;0.00;;;8.80;99.90;;;;;;5090933;28;20676;-66
2024/01/22 09:00:42;;;;;;;0.00;0.00;;;9.00;99.90;;;;;;5090937;28;20665;-65
2024/01/22 09:03:07;;;;;;;0.00;0.00;;;9.20;99.90;;;;;;5090895;28;20180;-65
2024/01/22 09:05:34;;;;;;;0.00;0.00;;;9.40;99.90;;;;;;5094895;28;20257;-65
2024/01/22 09:07:59;;;;;;;0.00;0.00;;;9.50;99.90;;;;;;5095149;28;20237;-65
2024/01/22 09:10:26;;;;;;;0.00;0.00;;;9.70;99.90;;;;;;5095088;28;20623;-65
2024/01/22 09:12:52;;;;;;;0.00;0.00;;;9.80;99.90;;;;;;5093788;28;20655;-65
2024/01/22 09:15:17;;;;;;;0.00;0.00;;;9.80;99.90;;;;;;5094882;28;20207;-64
2024/01/22 09:17:44;;;;;;;0.00;0.00;;;9.80;99.90;;;;;;5094861;28;20176;-64
2024/01/22 09:20:10;;;;;;;0.00;0.00;;;9.90;99.90;;;;;;5094927;28;20169;-65
2024/01/22 09:22:37;;;;;;;0.00;0.00;;;9.90;99.90;;;;;;5094630;28;20217;-65
2024/01/22 09:25:03;;;;;;;0.00;0.00;;;9.90;99.90;;;;;;5094917;28;20573;-65
2024/01/22 09:27:29;;;;;;;0.00;0.00;;;10.00;99.90;;;;;;5094836;28;20180;-65
2024/01/22 09:29:55;;;;;;;0.00;0.00;;;10.10;99.90;;;;;;5094751;28;20203;-65
2024/01/22 09:32:21;;;;;;;0.00;0.00;;;10.10;99.90;;;;;;5094820;28;20873;-64
2024/01/22 09:34:46;;;;;;;0.00;0.00;;;10.10;99.90;;;;;;5093470;28;20172;-65
2024/01/22 09:37:12;;;;;;;0.00;0.00;;;10.10;99.90;;;;;;5094968;28;20630;-65
2024/01/22 09:39:38;;;;;;;0.00;0.00;;;10.10;99.90;;;;;;5094402;28;20580;-65
2024/01/22 09:42:05;;;;;;;0.00;0.00;;;10.10;99.90;;;;;;5094632;28;20199;-65
2024/01/22 09:44:31;;;;;;;0.00;0.00;;;10.10;99.90;;;;;;5094534;28;20172;-64
2024/01/22 09:46:57;;;;;;;0.00;0.00;;;10.10;99.90;;;;;;5094184;28;20250;-64
2024/01/22 09:49:23;;;;;;;0.00;0.00;;;10.10;99.90;;;;;;5094467;28;20180;-65
2024/01/22 09:51:50;;;;;;;0.00;0.00;;;10.10;99.90;;;;;;5094211;28;20172;-65
2024/01/22 09:54:18;;;;;;;0.00;0.00;;;10.20;99.90;;;;;;5094158;28;20530;-65
2024/01/22 09:56:51;;;;;;;0.00;0.00;;;10.20;99.90;;;;;;5094116;28;20198;-64
2024/01/22 09:59:19;;;;;;;0.00;0.00;;;10.30;99.90;;;;;;5094103;28;20187;-65
2024/01/22 10:01:47;;;;;;;0.00;0.00;;;10.30;99.90;;;;;;5094078;28;20217;-65
2024/01/22 10:04:14;;;;;;;0.00;0.00;;;10.40;99.90;;;;;;5094085;28;20180;-65
2024/01/22 10:06:45;;;;;;;0.00;0.00;;;10.40;99.90;;;;;;5093866;28;20219;-65
2024/01/22 10:09:17;;;;;;;0.00;0.00;;;10.40;99.90;;;;;;5094081;28;20301;-65
2024/01/22 10:11:44;;;;;;;0.00;0.00;;;10.40;99.90;;;;;;5093915;28;20168;-65
2024/01/22 10:14:10;;;;;;;0.00;0.00;;;10.40;99.90;;;;;;5093905;28;20178;-65
2024/01/22 10:16:38;;;;;;;0.00;0.00;;;10.40;99.90;;;;;;5092567;28;20259;-65
2024/01/22 10:19:07;;;;;;;0.00;0.00;;;10.40;99.90;;;;;;5092554;28;20229;-66
2024/01/22 10:21:34;;;;;;;0.00;0.00;;;10.40;99.90;;;;;;5092649;28;20211;-63
2024/01/22 10:24:04;;;;;;;0.00;0.00;;;10.40;99.90;;;;;;5093688;28;20164;-65
2024/01/22 10:26:31;;;;;;;0.00;0.00;;;10.40;99.90;;;;;;5093723;28;20211;-65
2024/01/22 10:29:17;;;;;;;0.00;0.00;;;10.40;99.90;;;;;;5093744;28;20172;-65
2024/01/22 10:31:56;;;;;;;0.00;0.00;;;10.40;99.90;;;;;;5094247;28;20724;-63
2024/01/22 10:34:25;;;;;;;0.00;0.00;;;10.40;99.90;;;;;;5094902;28;20184;-64
2024/01/22 10:37:03;;;;;;;0.00;0.00;;;10.40;99.90;;;;;;5094668;28;20255;-64
2024/01/22 10:39:28;;;;;;;0.00;0.00;;;10.40;99.90;;;;;;5094123;28;20269;-64
2024/01/22 10:41:54;;;;;;;0.00;0.00;;;10.30;99.90;;;;;;5093715;28;20173;-64
2024/01/22 10:44:19;;;;;;;0.00;0.00;;;10.40;99.90;;;;;;5094129;28;20187;-64
2024/01/22 10:46:45;;;;;;;0.00;0.00;;;10.40;99.90;;;;;;5093466;28;20265;-64
2024/01/22 10:49:11;;;;;;;0.00;0.00;;;10.30;99.90;;;;;;5093524;28;20172;-65
2024/01/22 10:51:38;;;;;;;0.00;0.00;;;10.30;99.90;;;;;;5094038;28;20180;-63
2024/01/22 10:54:03;;;;;;;0.00;0.00;;;10.30;99.90;;;;;;5094444;28;20192;-64
2024/01/22 10:56:33;;;;;;;0.10;0.10;;;10.30;99.90;;;;;;5094089;28;20821;-64
2024/01/22 10:59:08;;;;;;;0.00;0.00;;;10.20;99.90;;;;;;5092837;28;20512;-63
2024/01/22 11:01:34;;;;;;;0.03;0.03;;;10.20;99.90;;;;;;5093397;28;20198;-64
2024/01/22 11:04:01;;;;;;;0.00;0.00;;;10.20;99.90;;;;;;5093388;28;20184;-65
2024/01/22 11:06:30;;;;;;;0.00;0.00;;;10.20;99.90;;;;;;5092975;28;20223;-65
2024/01/22 11:08:56;;;;;;;0.40;0.40;;;10.20;99.90;;;;;;5092806;28;20168;-65
2024/01/22 11:11:25;;;;;;;0.00;0.00;;;10.20;99.90;;;;;;5093005;28;20211;-65
2024/01/22 11:13:55;;;;;;;0.00;0.00;;;10.30;99.90;;;;;;5092891;28;20172;-65
2024/01/22 11:16:22;;;;;;;0.00;0.00;;;10.30;99.90;;;;;;5092973;28;20169;-65
2024/01/22 11:19:21;;;;;;;0.00;0.00;;;10.30;99.90;;;;;;5092749;28;20180;-65
2024/01/22 11:21:46;;;;;;;0.00;0.00;;;10.40;99.90;;;;;;5092802;28;20580;-65
2024/01/22 11:24:19;;;;;;;0.00;0.00;;;10.40;99.90;;;;;;5092776;28;20184;-65
2024/01/22 11:27:00;;;;;;;0.00;0.00;;;10.50;99.90;;;;;;5092444;28;20207;-65
2024/01/22 11:29:27;;;;;;;0.13;0.13;;;10.60;99.90;;;;;;5092539;28;20209;-65
2024/01/22 11:31:54;;;;;;;0.00;0.00;;;10.70;99.90;;;;;;5092341;28;20176;-65
2024/01/22 11:34:38;;;;;;;0.00;0.00;;;10.70;99.90;;;;;;5092257;28;20302;-65
2024/01/22 11:37:04;;;;;;;0.20;0.20;;;10.80;99.90;;;;;;5092410;28;20181;-65
2024/01/22 11:39:33;;;;;;;0.00;0.00;;;10.90;99.90;;;;;;5092083;28;20778;-65
2024/01/22 11:41:59;;;;;;;0.00;0.00;;;11.00;99.90;;;;;;5092429;28;20240;-65
2024/01/22 11:44:26;;;;;;;0.00;0.00;;;11.10;99.90;;;;;;5092403;28;20670;-65
2024/01/22 11:47:10;;;;;;;0.00;0.00;;;11.10;99.90;;;;;;5092038;28;20219;-66
2024/01/22 11:49:39;;;;;;;0.00;0.00;;;11.20;99.90;;;;;;5091936;28;20659;-65
2024/01/22 11:52:12;;;;;;;0.00;0.00;;;11.20;99.90;;;;;;5092201;28;20184;-64
2024/01/22 11:54:39;;;;;;;0.00;0.00;;;11.20;99.90;;;;;;5091989;28;20171;-65
2024/01/22 11:57:04;;;;;;;0.00;0.00;;;11.20;99.90;;;;;;5092162;28;20229;-65
2024/01/22 11:59:30;;;;;;;0.00;0.00;;;11.30;99.90;;;;;;5092017;28;20172;-63
2024/01/22 12:02:09;;;;;;;0.00;0.00;;;11.40;99.90;;;;;;5091822;28;20302;-65
2024/01/22 12:04:34;;;;;;;0.00;0.00;;;11.40;99.90;;;;;;5091885;28;20799;-64
2024/01/22 12:07:00;;;;;;;0.00;0.00;;;11.50;99.90;;;;;;5091948;28;20212;-64
2024/01/22 12:09:33;;;;;;;0.00;0.00;;;11.50;99.90;;;;;;5091969;28;20191;-65
2024/01/22 12:12:02;;;;;;;0.00;0.00;;;11.50;99.90;;;;;;5091882;28;20171;-65
2024/01/22 12:14:28;;;;;;;0.00;0.00;;;11.50;99.90;;;;;;5091841;28;20268;-65
2024/01/22 12:17:03;;;;;;;0.10;0.10;;;11.50;99.90;;;;;;5091428;28;20654;-64
2024/01/22 12:19:30;;;;;;;0.00;0.00;;;11.50;99.90;;;;;;5091755;28;20678;-63
2024/01/22 12:21:56;;;;;;;0.00;0.00;;;11.40;99.90;;;;;;5091616;28;20173;-64
2024/01/22 12:24:21;;;;;;;0.00;0.00;;;11.30;99.90;;;;;;5091624;28;20196;-64
2024/01/22 12:26:54;;;;;;;0.00;0.00;;;11.30;99.90;;;;;;5091531;28;20740;-64
2024/01/22 12:29:24;;;;;;;0.00;0.00;;;11.20;99.90;;;;;;5091551;28;20172;-64
2024/01/22 12:32:01;;;;;;;0.00;0.00;;;11.20;99.90;;;;;;5091579;28;20171;-64
2024/01/22 12:34:26;;;;;;;0.00;0.00;;;11.10;99.90;;;;;;5091523;28;20172;-63
2024/01/22 12:36:52;;;;;;;0.00;0.00;;;11.10;99.90;;;;;;5091431;28;20191;-64
2024/01/22 12:39:20;;;;;;;0.00;0.00;;;11.10;99.90;;;;;;5090627;28;20227;-64
2024/01/22 12:41:46;;;;;;;0.00;0.00;;;11.10;99.90;;;;;;5091426;28;20577;-64
2024/01/22 12:44:14;;;;;;;0.00;0.00;;;11.10;99.90;;;;;;5091367;28;20271;-64
2024/01/22 12:46:40;;;;;;;0.00;0.00;;;11.10;99.90;;;;;;5091112;28;20586;-64
2024/01/22 12:49:05;;;;;;;0.00;0.00;;;11.10;99.90;;;;;;5091291;28;20278;-64